Time;durP1;ratioP1;P1;durP2;ratioP2;P2;SDS_P1;SDS_P2;PMS_P1;PMS_P2;Temp;Humidity;BMP_temperature;BMP_pressure;BME280_temperature;BME280_humidity;BME280_pressure;Samples;Min_cycle;Max_cycle;Signal;HPM_P1;HPM_P2
2022/05/18 08:27:11;;;;;;;6.17;4.00;;;;;;;23.32;84.34;99286.19;4984073;28;20197;-65
2022/05/18 08:29:38;;;;;;;4.27;3.87;;;;;;;23.14;89.32;99285.91;5013861;28;20221;-64
2022/05/18 08:32:05;;;;;;;4.13;3.83;;;;;;;22.85;91.35;99293.56;5015050;28;20289;-65
2022/05/18 08:34:33;;;;;;;4.30;4.10;;;;;;;22.62;93.80;99302.41;5015001;28;20201;-66
2022/05/18 08:37:00;;;;;;;4.37;4.07;;;;;;;22.57;94.26;99299.34;5014786;28;20262;-65
2022/05/18 08:39:27;;;;;;;3.77;3.67;;;;;;;22.36;95.02;99290.63;5015096;28;20220;-65
2022/05/18 08:41:57;;;;;;;4.73;4.50;;;;;;;22.19;96.84;99306.81;5011110;28;20213;-65
2022/05/18 08:44:31;;;;;;;4.60;4.40;;;;;;;22.09;99.14;99309.34;5014391;28;20199;-65
2022/05/18 08:47:11;;;;;;;5.00;4.70;;;;;;;22.04;99.19;99305.41;5014769;28;20198;-65
2022/05/18 08:49:42;;;;;;;5.03;4.83;;;;;;;21.90;100.00;99307.34;5013417;28;20215;-65
2022/05/18 08:52:39;;;;;;;4.97;4.73;;;;;;;21.96;100.00;99304.25;5014494;28;20558;-65
2022/05/18 08:55:25;;;;;;;4.50;4.27;;;;;;;21.86;100.00;99298.06;5011942;28;20236;-65
2022/05/18 08:57:54;;;;;;;5.43;5.13;;;;;;;21.70;100.00;99301.97;5005623;28;20583;-64
2022/05/18 09:00:29;;;;;;;4.97;4.77;;;;;;;21.70;100.00;99292.38;5014131;28;20207;-65
2022/05/18 09:03:01;;;;;;;5.40;5.10;;;;;;;21.62;100.00;99299.94;5013170;28;20239;-65
2022/05/18 09:05:37;;;;;;;5.67;5.27;;;;;;;21.57;100.00;99302.06;5013811;28;20199;-64
2022/05/18 09:08:08;;;;;;;4.27;4.03;;;;;;;21.47;100.00;99301.13;5013454;28;20318;-64
2022/05/18 09:10:39;;;;;;;4.70;4.50;;;;;;;21.32;100.00;99307.50;5014326;28;20203;-65
2022/05/18 09:13:06;;;;;;;5.53;5.03;;;;;;;21.35;100.00;99302.06;5014059;28;20203;-65
2022/05/18 09:15:42;;;;;;;5.07;4.77;;;;;;;21.34;100.00;99306.44;5014581;28;20253;-65
2022/05/18 09:18:20;;;;;;;5.17;4.87;;;;;;;21.22;100.00;99301.31;5014079;28;20275;-65
2022/05/18 09:20:50;;;;;;;5.60;5.30;;;;;;;21.12;100.00;99297.75;5014044;28;20194;-65
2022/05/18 09:23:42;;;;;;;5.07;4.77;;;;;;;21.17;100.00;99319.91;5013762;28;20690;-65
2022/05/18 09:26:24;;;;;;;5.30;5.00;;;;;;;21.17;100.00;99319.06;5015177;28;20206;-65
2022/05/18 09:28:53;;;;;;;4.60;4.40;;;;;;;21.22;100.00;99316.97;5012081;28;20198;-65
2022/05/18 09:31:52;;;;;;;6.03;5.47;;;;;;;21.14;100.00;99314.91;5013861;28;20582;-65
2022/05/18 09:34:36;;;;;;;4.63;4.33;;;;;;;21.09;100.00;99321.41;5013690;28;20205;-64
2022/05/18 09:37:25;;;;;;;3.80;3.60;;;;;;;21.05;100.00;99319.97;5013173;28;20256;-64
2022/05/18 09:39:57;;;;;;;4.90;4.50;;;;;;;20.97;100.00;99311.88;5008451;28;20203;-65
2022/05/18 09:42:29;;;;;;;4.20;4.00;;;;;;;20.87;100.00;99306.53;5013166;28;20202;-65
2022/05/18 09:45:03;;;;;;;3.83;3.63;;;;;;;20.80;100.00;99311.34;5013715;28;20252;-65
2022/05/18 09:47:36;;;;;;;3.67;3.47;;;;;;;20.77;100.00;99311.59;5013629;28;20578;-65
2022/05/18 09:50:08;;;;;;;3.77;3.57;;;;;;;20.68;100.00;99316.63;5013475;28;20305;-66
2022/05/18 09:52:37;;;;;;;3.17;2.97;;;;;;;20.64;100.00;99299.56;5013574;28;20210;-65
2022/05/18 09:55:09;;;;;;;3.10;2.90;;;;;;;20.82;100.00;99311.22;5013324;28;20202;-65
2022/05/18 09:57:41;;;;;;;3.03;2.83;;;;;;;20.84;100.00;99297.13;5012922;28;20207;-66
2022/05/18 10:00:13;;;;;;;3.70;3.40;;;;;;;20.99;100.00;99304.78;5013538;28;20215;-65
2022/05/18 10:08:15;;;;;;;3.43;3.23;;;;;;;21.17;100.00;99311.25;5013007;28;20241;-65
2022/05/18 10:10:44;;;;;;;3.97;3.67;;;;;;;21.24;99.63;99304.63;5013234;28;20728;-65
2022/05/18 10:13:13;;;;;;;3.20;3.00;;;;;;;21.35;99.38;99302.06;5012480;28;20257;-65
2022/05/18 10:15:44;;;;;;;3.33;3.13;;;;;;;21.42;96.49;99298.84;5007740;28;20442;-64
2022/05/18 10:18:18;;;;;;;3.43;3.13;;;;;;;21.50;95.27;99300.88;5011650;28;20586;-65
2022/05/18 10:21:02;;;;;;;3.30;2.97;;;;;;;21.44;92.43;99290.91;5012159;28;20684;-65
2022/05/18 10:23:36;;;;;;;3.43;3.23;;;;;;;21.52;92.37;99306.00;5011783;28;20225;-65
2022/05/18 10:26:03;;;;;;;3.43;3.23;;;;;;;21.59;92.36;99315.81;5011270;28;20202;-65
2022/05/18 10:28:31;;;;;;;4.77;2.67;;;;;;;21.73;92.72;99307.78;5011759;28;20198;-64
2022/05/18 10:31:01;;;;;;;2.50;2.40;;;;;;;21.76;90.72;99307.53;5010981;28;20210;-64
2022/05/18 10:33:34;;;;;;;2.17;2.07;;;;;;;21.87;89.87;99299.69;5010027;28;20350;-64
2022/05/18 10:36:10;;;;;;;2.30;2.13;;;;;;;21.94;91.08;99298.28;5011009;28;20236;-64
2022/05/18 10:38:48;;;;;;;2.37;2.27;;;;;;;22.01;88.78;99305.63;5011783;28;20207;-64
2022/05/18 10:41:17;;;;;;;2.17;2.07;;;;;;;22.08;88.85;99309.44;5010354;28;20202;-65
2022/05/18 10:43:59;;;;;;;3.13;2.83;;;;;;;22.07;88.02;99300.78;5010838;28;20221;-65
2022/05/18 10:46:31;;;;;;;2.70;2.50;;;;;;;22.32;87.19;99316.19;5009895;28;20213;-64
2022/05/18 10:49:02;;;;;;;2.13;2.03;;;;;;;22.40;82.35;99315.53;5011224;28;20409;-65
2022/05/18 10:51:33;;;;;;;2.17;2.07;;;;;;;22.47;84.27;99308.88;5007387;28;20211;-65
2022/05/18 10:54:10;;;;;;;2.33;2.20;;;;;;;22.52;83.37;99309.34;5008937;28;20212;-64
2022/05/18 10:56:38;;;;;;;2.23;2.13;;;;;;;22.52;82.63;99311.94;5009925;28;20580;-64
2022/05/18 10:59:21;;;;;;;2.70;2.50;;;;;;;22.52;82.12;99311.94;5009364;28;20246;-64
2022/05/18 11:01:56;;;;;;;2.33;2.13;;;;;;;22.52;83.14;99311.94;5011596;28;20203;-64
2022/05/18 11:04:30;;;;;;;2.63;2.20;;;;;;;22.57;82.83;99311.59;5011464;28;20698;-64
2022/05/18 11:06:57;;;;;;;2.63;2.53;;;;;;;22.67;82.80;99305.53;5011676;28;20609;-65
2022/05/18 11:09:32;;;;;;;2.33;2.23;;;;;;;22.81;83.32;99307.03;5010357;28;20201;-64
2022/05/18 11:12:04;;;;;;;2.50;2.40;;;;;;;22.91;82.06;99308.75;5011719;28;20204;-65
2022/05/18 11:14:44;;;;;;;2.27;2.17;;;;;;;22.89;80.58;99304.59;5011538;28;20305;-65
2022/05/18 11:17:29;;;;;;;2.93;2.83;;;;;;;23.02;80.98;99311.31;5011599;28;20217;-65
2022/05/18 11:20:06;;;;;;;2.17;2.07;;;;;;;23.22;80.65;99316.66;5011738;28;20213;-65
2022/05/18 11:22:40;;;;;;;2.37;2.10;;;;;;;23.31;78.95;99310.66;5011442;28;20204;-65
2022/05/18 11:25:18;;;;;;;2.67;2.57;;;;;;;23.35;78.12;99312.91;5013310;28;20216;-65
2022/05/18 11:27:50;;;;;;;2.90;2.30;;;;;;;23.42;76.91;99313.25;5011582;28;20196;-65
2022/05/18 11:30:21;;;;;;;2.67;2.57;;;;;;;23.46;77.59;99309.41;5011444;28;20212;-65
2022/05/18 11:33:04;;;;;;;2.90;2.80;;;;;;;23.43;76.69;99312.28;5011223;28;20217;-65
2022/05/18 11:35:47;;;;;;;3.23;3.03;;;;;;;23.37;75.50;99305.75;5010965;28;20577;-65
2022/05/18 11:38:43;;;;;;;2.92;2.72;;;;;;;23.40;75.73;99315.16;5009888;28;20455;-72
2022/05/18 11:41:22;;;;;;;3.07;2.97;;;;;;;23.52;74.29;99308.91;5007448;28;20205;-75
2022/05/18 11:44:00;;;;;;;2.77;2.67;;;;;;;23.60;75.47;99305.63;5008017;28;20224;-75
2022/05/18 11:46:43;;;;;;;3.30;3.13;;;;;;;23.72;76.11;99310.63;5008335;28;20198;-74
2022/05/18 11:49:19;;;;;;;3.17;3.07;;;;;;;23.85;75.47;99316.47;5008364;28;20202;-74
2022/05/18 11:52:05;;;;;;;3.00;2.90;;;;;;;23.77;76.11;99313.72;5010017;28;20219;-74
2022/05/18 11:54:45;;;;;;;3.43;3.23;;;;;;;23.87;75.52;99334.69;5007034;28;20304;-69
2022/05/18 11:57:31;;;;;;;3.23;3.03;;;;;;;23.86;75.23;99331.22;5008699;28;20689;-71
2022/05/18 12:00:08;;;;;;;2.57;2.37;;;;;;;24.01;73.62;99343.00;5008459;28;20201;-74
2022/05/18 12:03:03;;;;;;;2.87;2.77;;;;;;;24.01;74.81;99348.22;5008252;28;20218;-71
2022/05/18 12:06:03;;;;;;;2.60;2.40;;;;;;;24.02;74.12;99355.13;5008058;28;20688;-70
2022/05/18 12:09:03;;;;;;;3.23;3.03;;;;;;;24.14;73.84;99360.28;5009248;28;20206;-71
2022/05/18 12:11:39;;;;;;;2.90;2.80;;;;;;;24.14;74.40;99374.22;5009237;28;20674;-70
2022/05/18 12:14:16;;;;;;;2.80;2.60;;;;;;;24.15;73.36;99375.06;5010080;28;20201;-70
2022/05/18 12:16:52;;;;;;;2.53;2.43;;;;;;;24.03;71.62;99374.31;5009596;28;20589;-69
2022/05/18 12:19:27;;;;;;;2.13;1.93;;;;;;;24.18;68.66;99395.75;5010134;28;20210;-69
2022/05/18 12:21:56;;;;;;;2.17;2.07;;;;;;;24.26;66.68;99390.69;5009143;28;20201;-70
2022/05/18 12:24:26;;;;;;;1.50;1.50;;;;;;;24.38;66.96;99395.69;5009441;28;20728;-69
2022/05/18 12:26:55;;;;;;;2.03;1.93;;;;;;;24.44;69.08;99399.56;5008379;28;20578;-69
2022/05/18 12:29:24;;;;;;;1.60;1.50;;;;;;;24.49;65.87;99406.06;5009412;28;20210;-70
2022/05/18 12:31:53;;;;;;;2.57;1.30;;;;;;;24.47;66.53;99420.25;5010452;28;20248;-71
2022/05/18 12:34:24;;;;;;;3.90;1.80;;;;;;;24.47;67.79;99433.38;5011440;28;20209;-71
2022/05/18 12:36:54;;;;;;;1.70;1.60;;;;;;;24.37;67.91;99445.59;5010231;28;20214;-69
2022/05/18 12:39:41;;;;;;;2.10;2.00;;;;;;;24.39;67.84;99459.41;5009206;28;20632;-71
2022/05/18 12:42:10;;;;;;;1.77;1.67;;;;;;;24.50;67.56;99475.88;5007191;28;20202;-70
2022/05/18 12:44:40;;;;;;;1.23;1.23;;;;;;;24.41;64.25;99521.22;5009109;28;20245;-70
2022/05/18 12:47:19;;;;;;;3.07;2.80;;;;;;;23.80;67.59;99559.53;5008214;28;20240;-70
2022/05/18 12:49:46;;;;;;;1.80;1.70;;;;;;;22.15;70.84;99580.41;5008993;28;20206;-71
2022/05/18 12:52:18;;;;;;;7.50;0.70;;;;;;;20.33;76.84;99592.53;5009063;28;20200;-71
2022/05/18 12:54:53;;;;;;;1.03;0.50;;;;;;;18.63;91.15;99592.97;5009225;28;20210;-71
2022/05/18 12:57:44;;;;;;;3.00;0.40;;;;;;;17.55;100.00;99597.50;5009852;28;20292;-71
2022/05/18 13:00:50;;;;;;;2.07;0.90;;;;;;;16.38;100.00;99649.47;5006913;28;20225;-70
2022/05/18 13:03:25;;;;;;;0.80;0.80;;;;;;;15.94;100.00;99638.69;5008638;28;20589;-69
2022/05/18 13:05:55;;;;;;;0.57;0.57;;;;;;;15.67;100.00;99652.03;5009548;28;20213;-67
2022/05/18 13:09:05;;;;;;;1.67;0.80;;;;;;;15.47;100.00;99656.44;4989721;28;20233;-68
2022/05/18 13:11:47;;;;;;;0.70;0.70;;;;;;;15.48;100.00;99671.88;4990990;28;20253;-70
2022/05/18 13:14:38;;;;;;;0.80;0.80;;;;;;;14.96;100.00;99667.34;4991758;28;20262;-68
2022/05/18 13:17:20;;;;;;;0.50;0.50;;;;;;;15.11;100.00;99682.16;4992283;28;20209;-69
2022/05/18 13:20:04;;;;;;;0.60;0.60;;;;;;;14.88;100.00;99680.59;4991301;28;20207;-70
2022/05/18 13:22:56;;;;;;;0.80;0.80;;;;;;;14.92;100.00;99669.22;4990391;28;20202;-69
2022/05/18 13:25:28;;;;;;;1.07;1.07;;;;;;;14.97;100.00;99684.50;4991703;28;20275;-70
2022/05/18 13:27:58;;;;;;;0.97;0.97;;;;;;;14.69;100.00;99690.00;4992644;28;20721;-69
2022/05/18 13:30:39;;;;;;;0.90;0.90;;;;;;;14.38;100.00;99695.59;4993506;28;20195;-70
2022/05/18 13:33:07;;;;;;;1.47;0.77;;;;;;;14.16;100.00;99728.28;4991414;28;20658;-70
2022/05/18 13:35:35;;;;;;;0.80;0.80;;;;;;;13.98;100.00;99721.28;4992236;28;20203;-70
2022/05/18 13:38:05;;;;;;;3.50;0.80;;;;;;;14.20;100.00;99747.88;4990461;28;20339;-71
2022/05/18 13:40:34;;;;;;;1.23;1.13;;;;;;;14.34;100.00;99766.28;4992471;28;20206;-72
2022/05/18 13:43:06;;;;;;;2.27;1.60;;;;;;;14.36;100.00;99764.47;4991415;28;20231;-71
2022/05/18 13:45:34;;;;;;;2.70;2.60;;;;;;;14.40;100.00;99755.72;4991249;28;20215;-71
2022/05/18 13:48:02;;;;;;;5.00;4.70;;;;;;;14.18;100.00;99747.94;4990387;28;20243;-72
2022/05/18 13:50:31;;;;;;;2.87;2.77;;;;;;;14.12;100.00;99773.13;4991932;28;20657;-70
2022/05/18 13:53:01;;;;;;;2.95;2.75;;;;;;;14.06;100.00;99768.19;4991265;28;20540;-71
2022/05/18 13:55:29;;;;;;;2.70;2.60;;;;;;;14.04;100.00;99772.59;4990921;28;20420;-70
2022/05/18 13:57:59;;;;;;;2.40;2.00;;;;;;;14.14;100.00;99779.06;4991656;28;20643;-71
2022/05/18 14:00:37;;;;;;;2.67;2.57;;;;;;;13.93;100.00;99785.88;4991530;28;20587;-71
2022/05/18 14:03:05;;;;;;;2.70;2.60;;;;;;;13.94;100.00;99797.88;4991567;28;20203;-70
2022/05/18 14:05:35;;;;;;;2.70;1.30;;;;;;;13.92;100.00;99814.28;4991546;28;20698;-71
2022/05/18 14:08:19;;;;;;;1.90;1.80;;;;;;;13.85;100.00;99829.16;5006402;28;20241;-71
2022/05/18 14:10:46;;;;;;;1.23;1.23;;;;;;;13.79;100.00;99823.38;5009822;28;20206;-70
2022/05/18 14:13:13;;;;;;;2.47;2.37;;;;;;;13.84;100.00;99842.06;5009992;28;20689;-70
2022/05/18 14:15:42;;;;;;;2.40;2.30;;;;;;;13.87;100.00;99847.97;5010798;28;20206;-70
2022/05/18 14:18:15;;;;;;;3.10;3.00;;;;;;;13.92;100.00;99846.06;5009924;28;20206;-71
2022/05/18 14:20:47;;;;;;;1.37;1.37;;;;;;;13.91;100.00;99857.28;5010894;28;20210;-71
2022/05/18 14:23:20;;;;;;;0.97;0.97;;;;;;;13.88;100.00;99859.97;5010400;28;20192;-71
2022/05/18 14:25:52;;;;;;;0.87;0.87;;;;;;;13.83;100.00;99858.44;5010183;28;20221;-71
2022/05/18 14:28:26;;;;;;;2.00;1.90;;;;;;;13.66;100.00;99816.09;5009488;28;20214;-70
2022/05/18 14:30:56;;;;;;;3.27;1.80;;;;;;;13.77;100.00;99867.22;5010425;28;20206;-70
2022/05/18 14:33:32;;;;;;;2.73;2.53;;;;;;;13.81;100.00;99875.69;5009570;28;20198;-74
2022/05/18 14:36:04;;;;;;;2.23;2.03;;;;;;;13.76;100.00;99885.31;5008365;28;20714;-70
2022/05/18 14:38:35;;;;;;;2.53;2.33;;;;;;;13.75;100.00;99888.78;5007244;28;20202;-71
2022/05/18 14:41:07;;;;;;;2.83;2.63;;;;;;;13.79;100.00;99890.38;5005127;28;20202;-71
2022/05/18 14:43:34;;;;;;;1.60;1.50;;;;;;;13.64;100.00;99891.72;5007831;28;20208;-69
2022/05/18 14:46:16;;;;;;;2.47;2.27;;;;;;;13.65;100.00;99912.31;5010314;28;20229;-69
2022/05/18 14:48:47;;;;;;;1.43;1.33;;;;;;;13.50;100.00;99914.56;5009449;28;20214;-68
2022/05/18 14:51:21;;;;;;;2.30;1.27;;;;;;;13.51;100.00;99927.38;5006193;28;20320;-70
2022/05/18 14:53:54;;;;;;;1.57;1.57;;;;;;;13.43;100.00;99934.53;5007548;28;20669;-68
2022/05/18 14:56:22;;;;;;;1.53;1.43;;;;;;;13.53;100.00;99929.91;5007414;28;20603;-67
2022/05/18 14:58:53;;;;;;;1.40;1.40;;;;;;;13.52;100.00;99934.22;5008746;28;20209;-69
2022/05/18 15:01:30;;;;;;;1.13;1.03;;;;;;;13.55;100.00;99934.13;5008788;28;20204;-72
2022/05/18 15:03:59;;;;;;;1.10;1.10;;;;;;;13.47;100.00;99945.59;5006918;28;20221;-68
2022/05/18 15:06:30;;;;;;;1.10;1.10;;;;;;;13.53;100.00;99943.63;5009272;28;20706;-68
2022/05/18 15:09:02;;;;;;;1.53;1.43;;;;;;;13.50;100.00;99948.91;5009887;28;20210;-71
2022/05/18 15:11:37;;;;;;;1.70;1.60;;;;;;;13.45;100.00;99948.19;5008641;28;20225;-69
2022/05/18 15:14:17;;;;;;;1.03;1.03;;;;;;;13.40;100.00;99955.25;5009163;28;20205;-70
2022/05/18 15:16:50;;;;;;;0.90;0.90;;;;;;;13.46;100.00;99957.59;5008223;28;20260;-70
2022/05/18 15:19:20;;;;;;;1.50;1.50;;;;;;;13.53;100.00;99953.94;5009891;28;20209;-71
2022/05/18 15:21:47;;;;;;;1.30;1.20;;;;;;;13.34;100.00;99965.75;5005700;28;20202;-69
2022/05/18 15:24:19;;;;;;;0.97;0.97;;;;;;;13.35;100.00;99971.72;5008680;28;20198;-68
2022/05/18 15:26:49;;;;;;;0.90;0.90;;;;;;;13.42;100.00;99984.34;5008902;28;20570;-70
2022/05/18 15:29:24;;;;;;;1.23;1.13;;;;;;;13.55;100.00;99995.94;5008209;28;20672;-77
2022/05/18 15:31:57;;;;;;;0.70;0.70;;;;;;;13.53;100.00;99984.00;5009008;28;20205;-66
2022/05/18 15:34:30;;;;;;;1.00;1.00;;;;;;;13.74;100.00;99998.75;5006478;28;20202;-66
2022/05/18 15:36:57;;;;;;;0.83;0.83;;;;;;;13.68;100.00;99992.06;5005814;28;20206;-66
2022/05/18 15:39:24;;;;;;;1.10;1.10;;;;;;;13.76;100.00;99990.97;5004943;28;20666;-66
2022/05/18 15:41:52;;;;;;;1.17;1.17;;;;;;;13.78;100.00;99984.88;5006966;28;20199;-66
2022/05/18 15:44:19;;;;;;;0.90;0.90;;;;;;;13.76;100.00;100006.44;5007131;28;20202;-67
2022/05/18 15:46:51;;;;;;;2.40;1.30;;;;;;;13.66;100.00;100004.19;5005673;28;20205;-66
2022/05/18 15:49:23;;;;;;;2.60;2.50;;;;;;;13.73;100.00;100009.13;5007748;28;20217;-72
2022/05/18 15:51:52;;;;;;;6.93;2.83;;;;;;;13.76;100.00;100003.88;5008490;28;20236;-71
2022/05/18 15:54:22;;;;;;;6.03;1.80;;;;;;;13.71;100.00;99995.44;5001509;28;20206;-72
2022/05/18 15:56:49;;;;;;;1.20;1.20;;;;;;;13.42;100.00;99974.06;5006540;28;20206;-72
2022/05/18 15:59:17;;;;;;;1.30;1.30;;;;;;;13.62;100.00;100007.72;5006286;28;20210;-73
2022/05/18 16:01:43;;;;;;;1.30;1.30;;;;;;;13.66;100.00;100003.31;5008098;28;20673;-72
2022/05/18 16:04:10;;;;;;;1.30;1.30;;;;;;;13.71;100.00;100016.03;5006739;28;20697;-73
2022/05/18 16:06:39;;;;;;;4.03;1.73;;;;;;;13.79;100.00;100025.22;5008950;28;20233;-72
2022/05/18 16:09:06;;;;;;;2.10;2.00;;;;;;;13.71;100.00;100026.34;5007838;28;20206;-72
2022/05/18 16:11:37;;;;;;;1.60;1.50;;;;;;;13.56;100.00;100038.84;5008432;28;20237;-71
2022/05/18 16:14:05;;;;;;;1.27;1.27;;;;;;;13.41;100.00;100039.31;5007893;28;20202;-71
2022/05/18 16:16:32;;;;;;;1.57;1.47;;;;;;;13.34;100.00;100048.16;5007764;28;20284;-72
2022/05/18 16:18:58;;;;;;;1.00;1.00;;;;;;;13.38;100.00;100038.56;5005737;28;20608;-73
2022/05/18 16:21:29;;;;;;;1.20;1.20;;;;;;;13.42;100.00;100028.13;5008026;28;20214;-72
2022/05/18 16:24:00;;;;;;;1.10;1.10;;;;;;;13.52;100.00;100042.41;5006093;28;20214;-72
2022/05/18 16:26:30;;;;;;;1.07;1.07;;;;;;;13.56;100.00;100066.34;5007263;28;20628;-72
2022/05/18 16:28:58;;;;;;;1.00;1.00;;;;;;;13.60;100.00;100083.41;5005021;28;20640;-70
2022/05/18 16:31:26;;;;;;;1.10;1.10;;;;;;;13.64;100.00;100088.38;5007488;28;20909;-73
2022/05/18 16:33:53;;;;;;;1.47;1.47;;;;;;;13.62;100.00;100105.63;5007750;28;20202;-73
2022/05/18 16:36:20;;;;;;;2.10;2.10;;;;;;;13.64;100.00;100101.28;5007641;28;20209;-72
2022/05/18 16:38:47;;;;;;;1.57;1.10;;;;;;;13.81;100.00;100105.03;5008898;28;20577;-73
2022/05/18 16:41:21;;;;;;;2.73;1.13;;;;;;;13.92;100.00;100108.13;5007450;28;20210;-72
2022/05/18 16:43:47;;;;;;;1.50;1.17;;;;;;;14.05;100.00;100096.53;5005703;28;20241;-73
2022/05/18 16:46:21;;;;;;;1.70;1.60;;;;;;;14.15;100.00;100096.16;5010487;28;20438;-73
2022/05/18 16:48:48;;;;;;;1.70;1.60;;;;;;;14.23;100.00;100089.91;5012722;28;20670;-73
2022/05/18 16:51:15;;;;;;;1.50;1.50;;;;;;;14.23;100.00;100082.16;5012062;28;20213;-72
2022/05/18 16:53:42;;;;;;;1.53;1.47;;;;;;;14.37;100.00;100093.75;5012411;28;20198;-73
2022/05/18 16:56:10;;;;;;;1.30;1.30;;;;;;;14.28;100.00;100109.47;5011996;28;20682;-71
2022/05/18 16:58:39;;;;;;;1.73;1.63;;;;;;;14.30;100.00;100130.06;5012312;28;20210;-72
2022/05/18 17:01:06;;;;;;;2.03;1.83;;;;;;;14.21;100.00;100131.22;5011683;28;20202;-73
2022/05/18 17:03:35;;;;;;;1.70;1.60;;;;;;;14.19;100.00;100133.84;5011636;28;20221;-72
2022/05/18 17:06:07;;;;;;;1.50;1.43;;;;;;;14.24;100.00;100146.59;5011940;28;20313;-73
2022/05/18 17:08:48;;;;;;;2.53;1.70;;;;;;;14.09;100.00;100158.22;5009342;28;20654;-73
2022/05/18 17:11:17;;;;;;;1.40;1.30;;;;;;;14.19;100.00;100153.63;5012159;28;20209;-73
2022/05/18 17:13:48;;;;;;;2.13;2.00;;;;;;;14.30;100.00;100173.91;5011557;28;20205;-73
2022/05/18 17:16:19;;;;;;;2.10;2.00;;;;;;;14.42;100.00;100160.63;5011304;28;20202;-73
2022/05/18 17:18:45;;;;;;;2.10;1.90;;;;;;;14.32;100.00;100144.59;5012307;28;20670;-73
2022/05/18 17:21:13;;;;;;;3.73;1.73;;;;;;;14.46;100.00;100163.06;5012114;28;20202;-74
2022/05/18 17:23:39;;;;;;;1.47;1.47;;;;;;;14.59;100.00;100159.19;5010460;28;20708;-73
2022/05/18 17:26:10;;;;;;;1.50;1.40;;;;;;;14.57;100.00;100155.78;5011083;28;20225;-73
2022/05/18 17:28:41;;;;;;;1.60;1.60;;;;;;;14.77;100.00;100182.63;5011415;28;20209;-73
2022/05/18 17:31:12;;;;;;;1.40;1.40;;;;;;;14.80;100.00;100187.72;5009578;28;20206;-73
2022/05/18 17:33:40;;;;;;;2.40;2.07;;;;;;;14.88;100.00;100190.88;5007835;28;20210;-73
2022/05/18 17:36:08;;;;;;;1.33;1.33;;;;;;;14.96;99.16;100199.19;5009529;28;20237;-73
2022/05/18 17:38:35;;;;;;;2.03;1.90;;;;;;;14.87;98.31;100194.34;5009141;28;20202;-73
2022/05/18 17:41:02;;;;;;;3.93;1.80;;;;;;;14.95;97.92;100202.66;5010650;28;20201;-73
2022/05/18 17:43:30;;;;;;;1.53;1.50;;;;;;;15.00;99.42;100195.59;5010205;28;22045;-74
2022/05/18 17:45:58;;;;;;;1.90;1.63;;;;;;;15.06;99.99;100200.53;5002653;28;20822;-74
2022/05/18 17:48:27;;;;;;;1.70;1.60;;;;;;;15.13;100.00;100208.03;5006634;28;20390;-74
2022/05/18 17:50:56;;;;;;;1.20;1.20;;;;;;;15.16;99.04;100207.06;5009390;28;20217;-74
2022/05/18 17:53:25;;;;;;;1.40;1.40;;;;;;;15.20;98.27;100208.63;5009874;28;20210;-73
2022/05/18 17:55:53;;;;;;;1.20;1.20;;;;;;;15.26;99.17;100213.59;5005871;28;20210;-73
2022/05/18 17:58:20;;;;;;;1.80;1.70;;;;;;;15.15;98.42;100201.03;5009041;28;20256;-73
2022/05/18 18:00:48;;;;;;;1.00;1.00;;;;;;;15.31;98.95;100224.59;5010518;28;20681;-73
2022/05/18 18:03:21;;;;;;;1.47;1.47;;;;;;;15.30;98.87;100230.66;5009010;28;20202;-74
2022/05/18 18:05:49;;;;;;;2.00;1.40;;;;;;;15.34;98.96;100236.56;5009505;28;20214;-73
2022/05/18 18:08:16;;;;;;;1.40;1.40;;;;;;;15.36;99.23;100245.09;4992274;28;20235;-73
2022/05/18 18:10:43;;;;;;;1.57;1.53;;;;;;;15.41;99.43;100262.09;4991406;28;20280;-73
2022/05/18 18:13:10;;;;;;;1.53;1.53;;;;;;;15.39;99.35;100248.41;4990862;28;20670;-73
2022/05/18 18:15:37;;;;;;;1.40;1.40;;;;;;;15.48;100.00;100266.19;4991139;28;20254;-73
2022/05/18 18:18:05;;;;;;;1.30;1.20;;;;;;;15.49;100.00;100262.72;4991793;28;20587;-73
2022/05/18 18:20:35;;;;;;;1.60;1.50;;;;;;;15.52;99.72;100272.94;4990150;28;20606;-74
2022/05/18 18:23:04;;;;;;;1.40;1.40;;;;;;;15.53;99.27;100279.81;4991042;28;20677;-73
2022/05/18 18:25:32;;;;;;;1.97;1.60;;;;;;;15.55;99.05;100278.00;4990791;28;20224;-73
2022/05/18 18:27:59;;;;;;;2.03;1.93;;;;;;;15.49;98.60;100262.72;4989220;28;20210;-73
2022/05/18 18:30:26;;;;;;;1.77;1.67;;;;;;;15.51;98.49;100275.59;4990972;28;20705;-73
2022/05/18 18:32:54;;;;;;;1.70;1.60;;;;;;;15.58;98.26;100303.72;4991118;28;20705;-72
2022/05/18 18:35:21;;;;;;;2.00;1.90;;;;;;;15.56;98.69;100308.13;4990294;28;20206;-73
2022/05/18 18:37:51;;;;;;;2.00;1.90;;;;;;;15.56;98.67;100315.03;4991201;28;20741;-73
2022/05/18 18:40:21;;;;;;;3.83;2.87;;;;;;;15.52;99.59;100311.72;4990690;28;20268;-73
2022/05/18 18:42:48;;;;;;;2.00;1.80;;;;;;;15.50;100.00;100315.25;4991008;28;20202;-73
2022/05/18 18:45:15;;;;;;;2.73;2.63;;;;;;;15.49;100.00;100322.16;4990487;28;20202;-73
2022/05/18 18:47:42;;;;;;;2.80;2.70;;;;;;;15.48;100.00;100346.31;4990162;28;20313;-73
2022/05/18 18:50:10;;;;;;;2.13;2.10;;;;;;;15.44;100.00;100347.31;4990751;28;20584;-73
2022/05/18 18:55:28;;;;;;;2.17;2.07;;;;;;;15.31;100.00;100361.53;4992595;28;20257;-74
2022/05/18 18:57:56;;;;;;;2.20;2.10;;;;;;;15.27;100.00;100370.28;4992352;28;20210;-74
2022/05/18 19:00:26;;;;;;;2.27;2.17;;;;;;;15.24;100.00;100371.22;4990198;28;20849;-74
2022/05/18 19:02:53;;;;;;;2.43;2.27;;;;;;;15.20;100.00;100368.78;4990571;28;20719;-74
2022/05/18 19:05:22;;;;;;;2.37;2.10;;;;;;;15.11;100.00;100361.34;4989530;28;20641;-75
2022/05/18 19:07:52;;;;;;;1.70;1.60;;;;;;;15.06;100.00;100378.72;4992271;28;20618;-74
2022/05/18 19:10:23;;;;;;;1.73;1.63;;;;;;;14.68;100.00;100375.66;4991716;28;20211;-74
2022/05/18 19:12:55;;;;;;;1.53;1.53;;;;;;;14.45;100.00;100385.81;4992766;28;20646;-73
2022/05/18 19:15:25;;;;;;;2.60;2.40;;;;;;;14.23;100.00;100400.22;4990180;28;20214;-74
2022/05/18 19:17:54;;;;;;;2.23;2.13;;;;;;;14.22;100.00;100401.09;4990200;28;20689;-74
2022/05/18 19:20:24;;;;;;;2.33;2.23;;;;;;;14.22;100.00;100402.88;4990963;28;20203;-74
2022/05/18 19:22:55;;;;;;;1.90;1.90;;;;;;;14.18;100.00;100394.38;4990656;28;20226;-74
2022/05/18 19:25:25;;;;;;;1.83;1.80;;;;;;;14.27;100.00;100407.00;4990269;28;20222;-75
2022/05/18 19:27:55;;;;;;;3.53;2.53;;;;;;;14.32;100.00;100412.84;4990552;28;20199;-74
2022/05/18 19:30:23;;;;;;;3.17;2.97;;;;;;;14.32;100.00;100412.84;4989925;28;20202;-74
2022/05/18 19:32:50;;;;;;;2.10;2.00;;;;;;;14.23;100.00;100394.22;4988306;28;20202;-74
2022/05/18 19:35:18;;;;;;;2.47;2.27;;;;;;;14.36;100.00;100423.97;4990128;28;20730;-73
2022/05/18 19:37:45;;;;;;;3.87;2.40;;;;;;;14.27;100.00;100413.88;4990514;28;20210;-74
2022/05/18 19:40:13;;;;;;;2.30;2.20;;;;;;;14.28;100.00;100420.75;4990203;28;20203;-74
2022/05/18 19:42:43;;;;;;;2.40;2.30;;;;;;;14.27;100.00;100430.22;4990534;28;20206;-74
2022/05/18 19:45:13;;;;;;;1.97;1.93;;;;;;;14.19;100.00;100432.13;4989900;28;20210;-74
2022/05/18 19:47:41;;;;;;;2.30;2.20;;;;;;;14.19;100.00;100432.13;4990323;28;20694;-75
2022/05/18 19:50:08;;;;;;;2.80;2.60;;;;;;;14.19;100.00;100447.63;4988752;28;20670;-75
2022/05/18 19:52:38;;;;;;;2.67;2.50;;;;;;;14.19;100.00;100448.47;4988639;28;20236;-74
2022/05/18 19:55:05;;;;;;;2.40;2.30;;;;;;;14.20;100.00;100441.56;4990337;28;20198;-74
2022/05/18 19:57:32;;;;;;;2.50;2.40;;;;;;;14.22;100.00;100437.22;4987789;28;20199;-74
2022/05/18 19:59:59;;;;;;;4.53;2.10;;;;;;;14.20;100.00;100439.00;4990081;28;20230;-75
2022/05/18 20:02:27;;;;;;;2.30;2.20;;;;;;;14.20;100.00;100441.56;4989790;28;20210;-74
2022/05/18 20:04:54;;;;;;;2.10;2.00;;;;;;;14.17;100.00;100441.66;4989921;28;20687;-74
2022/05/18 20:07:21;;;;;;;2.10;2.00;;;;;;;14.20;100.00;100449.31;4990280;28;20248;-75
2022/05/18 20:09:48;;;;;;;1.87;1.77;;;;;;;14.16;100.00;100448.56;4990013;28;20202;-74
2022/05/18 20:12:17;;;;;;;1.80;1.70;;;;;;;14.15;100.00;100448.63;4989825;28;20671;-74
2022/05/18 20:14:44;;;;;;;1.93;1.83;;;;;;;14.13;100.00;100445.22;4989640;28;20636;-74
2022/05/18 20:17:11;;;;;;;4.37;1.40;;;;;;;14.07;100.00;100441.09;4989398;28;20206;-75
2022/05/18 20:19:41;;;;;;;1.57;1.50;;;;;;;14.10;100.00;100442.72;4990425;28;20221;-75
2022/05/18 20:22:07;;;;;;;1.50;1.50;;;;;;;14.09;100.00;100459.06;4992674;28;20203;-75